Weather at King Abdullah II Air Base

Public forecast

Using degrees Celsius for public forecast. Weather courtesy of forecast.io.

Closest aviation weather report (METAR) to King Abdullah II Air Base

Closest report is Amman Civil (Marka International) Airport, 11.7 nm (21.7 km) W.

2023/02/07 23:00 (retrieved 1 hour ago)

OJAM 072300Z 26016KT 4000 RA BKN010 SCT040 03/01 Q1015 NOSIG

Closest aviation forecast (TAF) to King Abdullah II Air Base

Forecast is more than 6 hours old.

Closest forecast is Rosh Pina Airport, 67.5 nm (125.0 km) NNW.

2023/02/07 12:30 Ammendment (retrieved 12 hours ago)

TAF AMD TAF AMD LLIB 071628Z 0712/0812 CNL